sensor_id;sensor_type;location;lat;lon;timestamp;pressure;altitude;pressure_sealevel;temperature;humidity
11678;BME280;5895;41.950;24.372;2024-03-29T00:01:43;86691.78;;;7.11;62.76
11678;BME280;5895;41.950;24.372;2024-03-29T00:04:09;86700.13;;;7.13;63.49
11678;BME280;5895;41.950;24.372;2024-03-29T00:06:37;86703.44;;;7.20;63.69
11678;BME280;5895;41.950;24.372;2024-03-29T00:09:02;86704.38;;;7.26;63.30
11678;BME280;5895;41.950;24.372;2024-03-29T00:11:28;86700.97;;;7.32;63.50
11678;BME280;5895;41.950;24.372;2024-03-29T00:13:54;86701.91;;;7.37;63.51
11678;BME280;5895;41.950;24.372;2024-03-29T00:16:20;86697.13;;;7.41;62.60
11678;BME280;5895;41.950;24.372;2024-03-29T00:18:47;86698.25;;;7.45;62.54
11678;BME280;5895;41.950;24.372;2024-03-29T00:21:13;86710.81;;;7.41;62.76
11678;BME280;5895;41.950;24.372;2024-03-29T00:23:40;86705.81;;;7.47;63.96
11678;BME280;5895;41.950;24.372;2024-03-29T00:26:06;86711.22;;;7.38;63.35
11678;BME280;5895;41.950;24.372;2024-03-29T00:28:32;86741.63;;;7.36;62.99
11678;BME280;5895;41.950;24.372;2024-03-29T00:30:58;86700.34;;;7.36;63.33
11678;BME280;5895;41.950;24.372;2024-03-29T00:33:24;86697.94;;;7.35;62.73
11678;BME280;5895;41.950;24.372;2024-03-29T00:35:50;86694.00;;;7.32;62.83
11678;BME280;5895;41.950;24.372;2024-03-29T00:38:16;86697.38;;;7.33;63.17
11678;BME280;5895;41.950;24.372;2024-03-29T00:40:43;86695.22;;;7.30;63.97
11678;BME280;5895;41.950;24.372;2024-03-29T00:43:09;86688.13;;;7.25;63.93
11678;BME280;5895;41.950;24.372;2024-03-29T00:45:35;86686.53;;;7.24;63.41
11678;BME280;5895;41.950;24.372;2024-03-29T00:48:01;86680.63;;;7.17;63.96
11678;BME280;5895;41.950;24.372;2024-03-29T00:50:27;86686.63;;;7.11;62.97
11678;BME280;5895;41.950;24.372;2024-03-29T00:52:53;86684.47;;;7.08;63.08
11678;BME280;5895;41.950;24.372;2024-03-29T00:55:19;86685.44;;;7.07;64.18
11678;BME280;5895;41.950;24.372;2024-03-29T00:57:46;86681.13;;;7.07;64.04
11678;BME280;5895;41.950;24.372;2024-03-29T01:00:13;86673.16;;;7.09;63.74
11678;BME280;5895;41.950;24.372;2024-03-29T01:02:39;86686.84;;;7.09;63.96
11678;BME280;5895;41.950;24.372;2024-03-29T01:05:06;86693.63;;;7.04;63.87
11678;BME280;5895;41.950;24.372;2024-03-29T01:07:32;86704.34;;;7.01;64.03
11678;BME280;5895;41.950;24.372;2024-03-29T01:09:57;86704.34;;;7.01;63.90
11678;BME280;5895;41.950;24.372;2024-03-29T01:12:23;86702.78;;;7.00;64.31
11678;BME280;5895;41.950;24.372;2024-03-29T01:14:51;86699.41;;;6.99;63.56
11678;BME280;5895;41.950;24.372;2024-03-29T01:17:17;86703.78;;;6.99;63.37
11678;BME280;5895;41.950;24.372;2024-03-29T01:19:43;86706.94;;;7.01;63.51
11678;BME280;5895;41.950;24.372;2024-03-29T01:22:09;86702.38;;;7.03;63.32
11678;BME280;5895;41.950;24.372;2024-03-29T01:24:35;86706.09;;;7.07;64.26
11678;BME280;5895;41.950;24.372;2024-03-29T01:27:01;86707.25;;;7.11;62.73
11678;BME280;5895;41.950;24.372;2024-03-29T01:29:27;86710.00;;;7.16;63.23
11678;BME280;5895;41.950;24.372;2024-03-29T01:31:54;86706.00;;;7.20;63.70
11678;BME280;5895;41.950;24.372;2024-03-29T01:34:21;86704.59;;;7.24;63.43
11678;BME280;5895;41.950;24.372;2024-03-29T01:36:47;86699.00;;;7.27;63.30
11678;BME280;5895;41.950;24.372;2024-03-29T01:39:13;86697.59;;;7.31;62.91
11678;BME280;5895;41.950;24.372;2024-03-29T01:41:39;86709.91;;;7.29;63.22
11678;BME280;5895;41.950;24.372;2024-03-29T01:44:05;86708.75;;;7.25;63.01
11678;BME280;5895;41.950;24.372;2024-03-29T01:46:34;86710.75;;;7.23;63.12
11678;BME280;5895;41.950;24.372;2024-03-29T01:49:04;86706.00;;;7.20;63.49
11678;BME280;5895;41.950;24.372;2024-03-29T01:51:30;86710.44;;;7.13;63.00
11678;BME280;5895;41.950;24.372;2024-03-29T01:53:58;86716.41;;;7.07;63.05
11678;BME280;5895;41.950;24.372;2024-03-29T01:56:27;86722.41;;;7.01;62.68
11678;BME280;5895;41.950;24.372;2024-03-29T01:58:55;86730.41;;;6.93;63.15
11678;BME280;5895;41.950;24.372;2024-03-29T02:01:24;86732.03;;;6.87;63.29
11678;BME280;5895;41.950;24.372;2024-03-29T02:03:53;86732.06;;;6.80;63.67
11678;BME280;5895;41.950;24.372;2024-03-29T02:06:22;86738.41;;;6.78;63.45
11678;BME280;5895;41.950;24.372;2024-03-29T02:08:51;86743.56;;;6.78;62.85
11678;BME280;5895;41.950;24.372;2024-03-29T02:11:19;86742.78;;;6.77;63.80
11678;BME280;5895;41.950;24.372;2024-03-29T02:13:47;86746.38;;;6.76;63.62
11678;BME280;5895;41.950;24.372;2024-03-29T02:16:14;86736.06;;;6.76;62.67
11678;BME280;5895;41.950;24.372;2024-03-29T02:18:41;86734.88;;;6.72;62.71
11678;BME280;5895;41.950;24.372;2024-03-29T02:21:08;86729.72;;;6.72;63.41
11678;BME280;5895;41.950;24.372;2024-03-29T02:23:42;86730.72;;;6.71;63.42
11678;BME280;5895;41.950;24.372;2024-03-29T02:26:11;86738.47;;;6.71;63.79
11678;BME280;5895;41.950;24.372;2024-03-29T02:28:38;86732.50;;;6.71;62.77
11678;BME280;5895;41.950;24.372;2024-03-29T02:31:05;86734.69;;;6.74;62.93
11678;BME280;5895;41.950;24.372;2024-03-29T02:33:33;86735.47;;;6.74;62.66
11678;BME280;5895;41.950;24.372;2024-03-29T02:36:00;86743.22;;;6.74;63.31
11678;BME280;5895;41.950;24.372;2024-03-29T02:38:27;86742.03;;;6.70;63.18
11678;BME280;5895;41.950;24.372;2024-03-29T02:40:54;86736.91;;;6.63;63.68
11678;BME280;5895;41.950;24.372;2024-03-29T02:43:23;86756.16;;;6.61;63.87
11678;BME280;5895;41.950;24.372;2024-03-29T02:45:50;86767.06;;;6.56;62.68
11678;BME280;5895;41.950;24.372;2024-03-29T02:48:17;86763.56;;;6.44;62.68
11678;BME280;5895;41.950;24.372;2024-03-29T02:50:43;86769.56;;;6.31;63.66
11678;BME280;5895;41.950;24.372;2024-03-29T02:53:10;86773.94;;;6.24;62.61
11678;BME280;5895;41.950;24.372;2024-03-29T02:55:36;86770.06;;;6.02;63.50
11678;BME280;5895;41.950;24.372;2024-03-29T02:58:03;86806.09;;;6.02;63.68
11678;BME280;5895;41.950;24.372;2024-03-29T03:00:33;86758.16;;;5.88;64.53
11678;BME280;5895;41.950;24.372;2024-03-29T03:03:00;86772.81;;;5.94;63.96
11678;BME280;5895;41.950;24.372;2024-03-29T03:05:26;86789.28;;;5.79;63.95
11678;BME280;5895;41.950;24.372;2024-03-29T03:07:53;86823.94;;;5.97;64.39
11678;BME280;5895;41.950;24.372;2024-03-29T03:10:49;86792.22;;;5.90;63.25
11678;BME280;5895;41.950;24.372;2024-03-29T03:13:28;86796.56;;;5.89;63.84
11678;BME280;5895;41.950;24.372;2024-03-29T03:15:56;86786.09;;;5.91;64.27
11678;BME280;5895;41.950;24.372;2024-03-29T03:18:23;86789.03;;;5.88;63.77
11678;BME280;5895;41.950;24.372;2024-03-29T03:20:52;86795.41;;;5.92;63.92
11678;BME280;5895;41.950;24.372;2024-03-29T03:23:19;86796.59;;;5.96;63.55
11678;BME280;5895;41.950;24.372;2024-03-29T03:25:46;86812.44;;;5.93;63.62
11678;BME280;5895;41.950;24.372;2024-03-29T03:28:13;86800.91;;;5.89;63.77
11678;BME280;5895;41.950;24.372;2024-03-29T03:30:39;86806.88;;;5.82;63.53
11678;BME280;5895;41.950;24.372;2024-03-29T03:33:08;86804.53;;;5.74;64.08
11678;BME280;5895;41.950;24.372;2024-03-29T03:35:33;86816.59;;;5.67;63.67
11678;BME280;5895;41.950;24.372;2024-03-29T03:38:00;86819.94;;;5.61;63.72
11678;BME280;5895;41.950;24.372;2024-03-29T03:40:26;86823.31;;;5.55;64.04
11678;BME280;5895;41.950;24.372;2024-03-29T03:42:53;86827.88;;;5.53;64.03
11678;BME280;5895;41.950;24.372;2024-03-29T03:45:19;86837.59;;;5.51;64.33
11678;BME280;5895;41.950;24.372;2024-03-29T03:47:46;86852.03;;;5.52;63.93
11678;BME280;5895;41.950;24.372;2024-03-29T03:50:14;86845.69;;;5.54;64.56
11678;BME280;5895;41.950;24.372;2024-03-29T03:52:41;86853.03;;;5.57;64.13
11678;BME280;5895;41.950;24.372;2024-03-29T03:55:07;86852.81;;;5.59;64.11
11678;BME280;5895;41.950;24.372;2024-03-29T03:57:34;86856.38;;;5.65;64.45
11678;BME280;5895;41.950;24.372;2024-03-29T04:00:00;86857.59;;;5.69;63.50
11678;BME280;5895;41.950;24.372;2024-03-29T04:04:56;86863.53;;;5.69;63.94
11678;BME280;5895;41.950;24.372;2024-03-29T04:07:25;86871.44;;;5.68;63.78
11678;BME280;5895;41.950;24.372;2024-03-29T04:09:51;86875.59;;;5.62;63.54
11678;BME280;5895;41.950;24.372;2024-03-29T04:12:18;86876.97;;;5.58;63.86
11678;BME280;5895;41.950;24.372;2024-03-29T04:14:44;86884.50;;;5.53;63.69
11678;BME280;5895;41.950;24.372;2024-03-29T04:17:12;86884.50;;;5.53;63.75
11678;BME280;5895;41.950;24.372;2024-03-29T04:19:38;86887.28;;;5.58;64.34
11678;BME280;5895;41.950;24.372;2024-03-29T04:24:34;86906.09;;;5.65;64.21
11678;BME280;5895;41.950;24.372;2024-03-29T04:27:00;86902.72;;;5.71;63.99
11678;BME280;5895;41.950;24.372;2024-03-29T04:29:26;86916.59;;;5.70;63.62
11678;BME280;5895;41.950;24.372;2024-03-29T04:31:53;86918.16;;;5.71;63.96
11678;BME280;5895;41.950;24.372;2024-03-29T04:34:19;86916.78;;;5.75;63.72
11678;BME280;5895;41.950;24.372;2024-03-29T04:36:46;86922.72;;;5.76;63.08
11678;BME280;5895;41.950;24.372;2024-03-29T04:39:13;86920.94;;;5.76;63.64
11678;BME280;5895;41.950;24.372;2024-03-29T04:41:41;86926.88;;;5.77;63.25
11678;BME280;5895;41.950;24.372;2024-03-29T04:44:08;86931.66;;;5.73;63.60
11678;BME280;5895;41.950;24.372;2024-03-29T04:46:35;86932.81;;;5.71;63.98
11678;BME280;5895;41.950;24.372;2024-03-29T04:49:02;86928.88;;;5.68;64.41
11678;BME280;5895;41.950;24.372;2024-03-29T04:51:29;86931.22;;;5.63;64.01
11678;BME280;5895;41.950;24.372;2024-03-29T04:53:56;86937.59;;;5.67;63.69
11678;BME280;5895;41.950;24.372;2024-03-29T04:56:23;86936.78;;;5.73;64.11
11678;BME280;5895;41.950;24.372;2024-03-29T04:58:51;86929.28;;;5.78;64.36
11678;BME280;5895;41.950;24.372;2024-03-29T05:01:18;86933.66;;;5.84;63.91
11678;BME280;5895;41.950;24.372;2024-03-29T05:03:45;86936.63;;;5.95;62.93
11678;BME280;5895;41.950;24.372;2024-03-29T05:06:12;86939.19;;;5.95;63.94
11678;BME280;5895;41.950;24.372;2024-03-29T05:08:39;86941.97;;;6.00;63.27
11678;BME280;5895;41.950;24.372;2024-03-29T05:11:06;86940.03;;;6.02;63.10
11678;BME280;5895;41.950;24.372;2024-03-29T05:13:33;86949.91;;;6.05;63.41
11678;BME280;5895;41.950;24.372;2024-03-29T05:16:02;86947.34;;;6.05;63.78
11678;BME280;5895;41.950;24.372;2024-03-29T05:18:29;86952.47;;;6.05;63.45
11678;BME280;5895;41.950;24.372;2024-03-29T05:20:55;86956.47;;;6.01;63.63
11678;BME280;5895;41.950;24.372;2024-03-29T05:23:22;86947.13;;;6.00;63.76
11678;BME280;5895;41.950;24.372;2024-03-29T05:25:49;86944.56;;;6.00;64.27
11678;BME280;5895;41.950;24.372;2024-03-29T05:28:17;86962.59;;;6.00;63.81
11678;BME280;5895;41.950;24.372;2024-03-29T05:30:44;86964.00;;;6.02;63.63
11678;BME280;5895;41.950;24.372;2024-03-29T05:33:13;86960.22;;;6.05;64.54
11678;BME280;5895;41.950;24.372;2024-03-29T05:35:41;86956.63;;;6.06;64.93
11678;BME280;5895;41.950;24.372;2024-03-29T05:38:08;86958.44;;;6.12;64.21
11678;BME280;5895;41.950;24.372;2024-03-29T05:40:34;86963.00;;;6.23;64.90
11678;BME280;5895;41.950;24.372;2024-03-29T05:43:03;86961.41;;;6.35;63.85
11678;BME280;5895;41.950;24.372;2024-03-29T05:45:31;86968.13;;;6.56;63.84
11678;BME280;5895;41.950;24.372;2024-03-29T05:47:58;86968.31;;;6.75;63.50
11678;BME280;5895;41.950;24.372;2024-03-29T05:50:27;86963.09;;;6.95;63.04
11678;BME280;5895;41.950;24.372;2024-03-29T05:52:54;86961.88;;;7.10;62.79
11678;BME280;5895;41.950;24.372;2024-03-29T05:55:22;86965.38;;;7.29;61.39
11678;BME280;5895;41.950;24.372;2024-03-29T05:57:49;86966.69;;;7.52;61.90
11678;BME280;5895;41.950;24.372;2024-03-29T06:00:16;86967.78;;;7.76;60.91
11678;BME280;5895;41.950;24.372;2024-03-29T06:02:43;86969.63;;;8.00;60.90
11678;BME280;5895;41.950;24.372;2024-03-29T06:05:11;86972.25;;;8.25;60.97
11678;BME280;5895;41.950;24.372;2024-03-29T06:07:40;86978.09;;;8.45;60.04
11678;BME280;5895;41.950;24.372;2024-03-29T06:10:07;86971.53;;;8.68;59.94
11678;BME280;5895;41.950;24.372;2024-03-29T06:12:36;86977.34;;;8.88;59.25
11678;BME280;5895;41.950;24.372;2024-03-29T06:15:05;86971.97;;;9.08;59.29
11678;BME280;5895;41.950;24.372;2024-03-29T06:17:49;86974.16;;;9.30;58.57
11678;BME280;5895;41.950;24.372;2024-03-29T06:20:16;86984.31;;;9.49;57.96
11678;BME280;5895;41.950;24.372;2024-03-29T06:22:46;86986.88;;;9.68;58.09
11678;BME280;5895;41.950;24.372;2024-03-29T06:25:13;86981.91;;;9.85;57.79
11678;BME280;5895;41.950;24.372;2024-03-29T06:27:41;86992.47;;;10.01;57.52
11678;BME280;5895;41.950;24.372;2024-03-29T06:30:09;86991.84;;;10.18;57.09
11678;BME280;5895;41.950;24.372;2024-03-29T06:32:36;86984.50;;;10.33;57.04
11678;BME280;5895;41.950;24.372;2024-03-29T06:35:04;86980.69;;;10.47;56.97
11678;BME280;5895;41.950;24.372;2024-03-29T06:37:31;86988.84;;;10.63;56.73
11678;BME280;5895;41.950;24.372;2024-03-29T06:39:59;86990.81;;;10.79;56.32
11678;BME280;5895;41.950;24.372;2024-03-29T06:42:27;86994.78;;;10.93;56.56
11678;BME280;5895;41.950;24.372;2024-03-29T06:44:55;87000.19;;;11.03;55.99
11678;BME280;5895;41.950;24.372;2024-03-29T06:47:24;87007.22;;;11.15;56.49
11678;BME280;5895;41.950;24.372;2024-03-29T06:49:51;87001.00;;;11.27;55.86
11678;BME280;5895;41.950;24.372;2024-03-29T06:52:18;87004.41;;;11.39;55.45
11678;BME280;5895;41.950;24.372;2024-03-29T06:54:45;86996.13;;;11.54;55.79
11678;BME280;5895;41.950;24.372;2024-03-29T06:57:13;87002.91;;;11.67;55.26
11678;BME280;5895;41.950;24.372;2024-03-29T06:59:43;87014.88;;;11.80;55.74
11678;BME280;5895;41.950;24.372;2024-03-29T07:02:09;87021.44;;;11.94;54.38
11678;BME280;5895;41.950;24.372;2024-03-29T07:04:37;87027.38;;;12.06;54.01
11678;BME280;5895;41.950;24.372;2024-03-29T07:07:04;87024.53;;;12.20;54.95
11678;BME280;5895;41.950;24.372;2024-03-29T07:09:31;87035.81;;;12.37;54.51
11678;BME280;5895;41.950;24.372;2024-03-29T07:11:58;87030.91;;;12.52;54.32
11678;BME280;5895;41.950;24.372;2024-03-29T07:14:26;87032.75;;;12.68;53.61
11678;BME280;5895;41.950;24.372;2024-03-29T07:16:54;87039.25;;;12.83;54.65
11678;BME280;5895;41.950;24.372;2024-03-29T07:19:22;87045.75;;;12.97;53.67
11678;BME280;5895;41.950;24.372;2024-03-29T07:21:49;87037.09;;;13.08;53.76
11678;BME280;5895;41.950;24.372;2024-03-29T07:24:18;87058.06;;;13.18;53.79
11678;BME280;5895;41.950;24.372;2024-03-29T07:26:46;87063.56;;;13.34;53.52
11678;BME280;5895;41.950;24.372;2024-03-29T07:29:12;87062.72;;;13.45;53.14
11678;BME280;5895;41.950;24.372;2024-03-29T07:31:43;87062.16;;;13.60;52.82
11678;BME280;5895;41.950;24.372;2024-03-29T07:34:10;87073.63;;;13.75;53.10
11678;BME280;5895;41.950;24.372;2024-03-29T07:36:37;87073.28;;;13.89;52.20
11678;BME280;5895;41.950;24.372;2024-03-29T07:39:05;87067.72;;;14.02;52.10
11678;BME280;5895;41.950;24.372;2024-03-29T07:41:32;87077.06;;;14.15;51.95
11678;BME280;5895;41.950;24.372;2024-03-29T07:43:59;87081.13;;;14.27;51.77
11678;BME280;5895;41.950;24.372;2024-03-29T07:46:29;87079.50;;;14.43;51.40
11678;BME280;5895;41.950;24.372;2024-03-29T07:48:58;87070.31;;;14.58;50.63
11678;BME280;5895;41.950;24.372;2024-03-29T07:51:24;87064.88;;;14.64;51.31
11678;BME280;5895;41.950;24.372;2024-03-29T07:53:51;87072.44;;;14.82;51.59
11678;BME280;5895;41.950;24.372;2024-03-29T07:56:18;87087.53;;;15.02;51.35
11678;BME280;5895;41.950;24.372;2024-03-29T07:58:50;87084.97;;;15.07;46.55
11678;BME280;5895;41.950;24.372;2024-03-29T08:01:20;87088.16;;;15.10;48.39
11678;BME280;5895;41.950;24.372;2024-03-29T08:03:49;87089.63;;;15.27;50.79
11678;BME280;5895;41.950;24.372;2024-03-29T08:06:18;87093.34;;;15.37;50.29
11678;BME280;5895;41.950;24.372;2024-03-29T08:08:45;87093.25;;;15.53;50.69
11678;BME280;5895;41.950;24.372;2024-03-29T08:11:12;87100.50;;;15.68;50.37
11678;BME280;5895;41.950;24.372;2024-03-29T08:13:40;87095.03;;;15.75;50.59
11678;BME280;5895;41.950;24.372;2024-03-29T08:16:07;87101.16;;;15.85;50.59
11678;BME280;5895;41.950;24.372;2024-03-29T08:18:34;87099.44;;;16.01;50.30
11678;BME280;5895;41.950;24.372;2024-03-29T08:21:01;87099.72;;;16.00;49.26
11678;BME280;5895;41.950;24.372;2024-03-29T08:23:30;87103.91;;;16.01;48.90
11678;BME280;5895;41.950;24.372;2024-03-29T08:25:57;87109.78;;;16.18;50.43
11678;BME280;5895;41.950;24.372;2024-03-29T08:28:24;87100.97;;;16.34;50.08
11678;BME280;5895;41.950;24.372;2024-03-29T08:30:58;87096.88;;;16.49;46.21
11678;BME280;5895;41.950;24.372;2024-03-29T08:33:25;87107.44;;;16.64;49.86
11678;BME280;5895;41.950;24.372;2024-03-29T08:35:52;87109.88;;;16.76;49.81
11678;BME280;5895;41.950;24.372;2024-03-29T08:38:19;87100.09;;;16.66;48.79
11678;BME280;5895;41.950;24.372;2024-03-29T08:40:48;87109.31;;;16.69;47.85
11678;BME280;5895;41.950;24.372;2024-03-29T08:43:15;87106.41;;;16.70;48.81
11678;BME280;5895;41.950;24.372;2024-03-29T08:45:43;87104.94;;;16.79;49.19
11678;BME280;5895;41.950;24.372;2024-03-29T08:48:10;87105.00;;;17.00;49.20
11678;BME280;5895;41.950;24.372;2024-03-29T08:50:38;87112.16;;;17.14;49.51
11678;BME280;5895;41.950;24.372;2024-03-29T08:53:05;87100.94;;;17.34;49.43
11678;BME280;5895;41.950;24.372;2024-03-29T08:55:33;87108.34;;;17.53;49.21
11678;BME280;5895;41.950;24.372;2024-03-29T08:58:03;87104.72;;;17.74;48.54
11678;BME280;5895;41.950;24.372;2024-03-29T09:00:31;87108.97;;;17.90;48.46
11678;BME280;5895;41.950;24.372;2024-03-29T09:02:58;87107.91;;;17.96;48.59
11678;BME280;5895;41.950;24.372;2024-03-29T09:05:26;87107.38;;;18.05;48.33
11678;BME280;5895;41.950;24.372;2024-03-29T09:07:55;87106.31;;;18.21;48.34
11678;BME280;5895;41.950;24.372;2024-03-29T09:10:22;87105.78;;;18.39;48.60
11678;BME280;5895;41.950;24.372;2024-03-29T09:12:50;87110.25;;;18.59;48.57
11678;BME280;5895;41.950;24.372;2024-03-29T09:15:19;87119.44;;;18.72;47.85
11678;BME280;5895;41.950;24.372;2024-03-29T09:17:46;87114.66;;;18.89;47.96
11678;BME280;5895;41.950;24.372;2024-03-29T09:20:13;87103.06;;;19.06;48.62
11678;BME280;5895;41.950;24.372;2024-03-29T09:22:40;87096.19;;;19.20;48.63
11678;BME280;5895;41.950;24.372;2024-03-29T09:25:08;87096.09;;;19.35;48.26
11678;BME280;5895;41.950;24.372;2024-03-29T09:27:39;87095.25;;;19.50;48.14
11678;BME280;5895;41.950;24.372;2024-03-29T09:30:10;87087.28;;;19.70;47.68
11678;BME280;5895;41.950;24.372;2024-03-29T09:32:39;87087.41;;;19.94;46.92
11678;BME280;5895;41.950;24.372;2024-03-29T09:35:06;87079.16;;;20.06;47.21
11678;BME280;5895;41.950;24.372;2024-03-29T09:37:33;87083.00;;;20.19;47.01
11678;BME280;5895;41.950;24.372;2024-03-29T09:40:02;87084.88;;;20.13;46.47
11678;BME280;5895;41.950;24.372;2024-03-29T09:42:31;87083.41;;;20.31;46.97
11678;BME280;5895;41.950;24.372;2024-03-29T09:44:59;87062.69;;;20.53;46.54
11678;BME280;5895;41.950;24.372;2024-03-29T09:47:30;87062.84;;;20.67;44.82
11678;BME280;5895;41.950;24.372;2024-03-29T09:50:03;87063.19;;;20.60;43.05
11678;BME280;5895;41.950;24.372;2024-03-29T09:52:31;87057.47;;;20.77;46.25
11678;BME280;5895;41.950;24.372;2024-03-29T09:55:00;87062.28;;;20.99;45.41
11678;BME280;5895;41.950;24.372;2024-03-29T09:57:27;87062.44;;;21.08;46.12
11678;BME280;5895;41.950;24.372;2024-03-29T09:59:56;87055.63;;;21.26;45.83
11678;BME280;5895;41.950;24.372;2024-03-29T10:02:26;87054.91;;;21.44;42.03
11678;BME280;5895;41.950;24.372;2024-03-29T10:04:56;87051.44;;;21.68;45.69
11678;BME280;5895;41.950;24.372;2024-03-29T10:07:26;87048.50;;;21.88;45.20
11678;BME280;5895;41.950;24.372;2024-03-29T10:09:55;87045.09;;;22.06;45.03
11678;BME280;5895;41.950;24.372;2024-03-29T10:12:24;87052.22;;;22.25;45.55
11678;BME280;5895;41.950;24.372;2024-03-29T10:14:51;87044.56;;;22.42;45.39
11678;BME280;5895;41.950;24.372;2024-03-29T10:17:18;87038.63;;;22.64;44.68
11678;BME280;5895;41.950;24.372;2024-03-29T10:19:45;87039.63;;;22.68;43.97
11678;BME280;5895;41.950;24.372;2024-03-29T10:22:13;87043.31;;;22.53;43.69
11678;BME280;5895;41.950;24.372;2024-03-29T10:24:41;87045.47;;;22.18;42.75
11678;BME280;5895;41.950;24.372;2024-03-29T10:27:09;87032.28;;;22.32;44.03
11678;BME280;5895;41.950;24.372;2024-03-29T10:29:36;87032.53;;;22.17;43.18
11678;BME280;5895;41.950;24.372;2024-03-29T10:32:04;87026.22;;;21.94;43.31
11678;BME280;5895;41.950;24.372;2024-03-29T10:34:31;87028.09;;;21.75;43.74
11678;BME280;5895;41.950;24.372;2024-03-29T10:37:01;87035.16;;;21.60;43.20
11678;BME280;5895;41.950;24.372;2024-03-29T10:39:29;87029.38;;;21.58;43.17
11678;BME280;5895;41.950;24.372;2024-03-29T10:42:01;87024.22;;;21.48;39.57
11678;BME280;5895;41.950;24.372;2024-03-29T10:44:29;87021.28;;;21.31;43.40
11678;BME280;5895;41.950;24.372;2024-03-29T10:46:56;87025.59;;;21.22;43.18
11678;BME280;5895;41.950;24.372;2024-03-29T10:49:25;87023.47;;;21.24;42.89
11678;BME280;5895;41.950;24.372;2024-03-29T10:51:53;87022.59;;;21.52;43.02
11678;BME280;5895;41.950;24.372;2024-03-29T10:54:22;87026.44;;;21.60;42.55
11678;BME280;5895;41.950;24.372;2024-03-29T10:56:59;87022.25;;;21.78;37.22
11678;BME280;5895;41.950;24.372;2024-03-29T10:59:35;87013.59;;;22.10;37.82
11678;BME280;5895;41.950;24.372;2024-03-29T11:02:12;87012.09;;;22.23;36.51
11678;BME280;5895;41.950;24.372;2024-03-29T11:04:41;87004.50;;;22.35;42.74
11678;BME280;5895;41.950;24.372;2024-03-29T11:07:17;87007.06;;;22.54;36.30
11678;BME280;5895;41.950;24.372;2024-03-29T11:09:49;86993.81;;;22.86;40.99
11678;BME280;5895;41.950;24.372;2024-03-29T11:12:18;86998.31;;;22.86;41.87
11678;BME280;5895;41.950;24.372;2024-03-29T11:14:53;86994.75;;;22.77;35.78
11678;BME280;5895;41.950;24.372;2024-03-29T11:17:24;86998.09;;;22.68;42.57
11678;BME280;5895;41.950;24.372;2024-03-29T11:19:51;86989.06;;;22.83;42.63
11678;BME280;5895;41.950;24.372;2024-03-29T11:22:19;86995.91;;;23.03;42.39
11678;BME280;5895;41.950;24.372;2024-03-29T11:24:46;86991.28;;;23.22;42.15
11678;BME280;5895;41.950;24.372;2024-03-29T11:27:13;86998.16;;;23.10;42.02
11678;BME280;5895;41.950;24.372;2024-03-29T11:29:41;86998.09;;;22.68;41.68
11678;BME280;5895;41.950;24.372;2024-03-29T11:32:12;86993.38;;;22.65;41.27
11678;BME280;5895;41.950;24.372;2024-03-29T11:34:44;86982.31;;;22.77;35.67
11678;BME280;5895;41.950;24.372;2024-03-29T11:37:12;86986.66;;;22.87;42.27
11678;BME280;5895;41.950;24.372;2024-03-29T11:39:39;86984.03;;;23.14;42.03
11678;BME280;5895;41.950;24.372;2024-03-29T11:42:07;86983.44;;;23.17;41.66
11678;BME280;5895;41.950;24.372;2024-03-29T11:44:34;86976.75;;;23.06;41.31
11678;BME280;5895;41.950;24.372;2024-03-29T11:47:03;86970.28;;;22.85;39.41
11678;BME280;5895;41.950;24.372;2024-03-29T11:49:33;86967.34;;;23.00;41.16
11678;BME280;5895;41.950;24.372;2024-03-29T11:52:04;86967.84;;;23.16;38.58
11678;BME280;5895;41.950;24.372;2024-03-29T11:54:38;86960.19;;;23.28;33.07
11678;BME280;5895;41.950;24.372;2024-03-29T11:57:05;86974.44;;;23.18;41.60
11678;BME280;5895;41.950;24.372;2024-03-29T11:59:32;86965.41;;;23.19;41.43
11678;BME280;5895;41.950;24.372;2024-03-29T12:01:59;86971.03;;;23.54;42.01
11678;BME280;5895;41.950;24.372;2024-03-29T12:04:26;86964.19;;;23.53;40.54
11678;BME280;5895;41.950;24.372;2024-03-29T12:06:55;86968.69;;;23.66;38.63
11678;BME280;5895;41.950;24.372;2024-03-29T12:09:22;86975.53;;;23.67;40.75
11678;BME280;5895;41.950;24.372;2024-03-29T12:11:49;86971.09;;;23.77;41.50
11678;BME280;5895;41.950;24.372;2024-03-29T12:14:16;86962.22;;;23.95;41.40
11678;BME280;5895;41.950;24.372;2024-03-29T12:16:44;86946.69;;;24.24;41.29
11678;BME280;5895;41.950;24.372;2024-03-29T12:19:29;86945.47;;;24.31;33.94
11678;BME280;5895;41.950;24.372;2024-03-29T12:21:59;86940.31;;;24.48;39.28
11678;BME280;5895;41.950;24.372;2024-03-29T12:24:26;86938.25;;;24.45;40.11
11678;BME280;5895;41.950;24.372;2024-03-29T12:26:53;86941.84;;;24.26;40.18
11678;BME280;5895;41.950;24.372;2024-03-29T12:29:20;86933.34;;;24.16;40.17
11678;BME280;5895;41.950;24.372;2024-03-29T12:31:56;86930.63;;;24.07;33.75
11678;BME280;5895;41.950;24.372;2024-03-29T12:34:23;86938.78;;;24.11;40.46
11678;BME280;5895;41.950;24.372;2024-03-29T12:36:50;86949.63;;;24.23;40.42
11678;BME280;5895;41.950;24.372;2024-03-29T12:39:19;86939.63;;;24.20;39.81
11678;BME280;5895;41.950;24.372;2024-03-29T12:41:47;86925.22;;;24.35;40.58
11678;BME280;5895;41.950;24.372;2024-03-29T12:44:14;86922.44;;;24.40;41.13
11678;BME280;5895;41.950;24.372;2024-03-29T12:46:41;86929.44;;;24.58;41.72
11678;BME280;5895;41.950;24.372;2024-03-29T12:49:10;86929.50;;;24.75;39.45
11678;BME280;5895;41.950;24.372;2024-03-29T12:51:40;86919.56;;;24.90;41.58
11678;BME280;5895;41.950;24.372;2024-03-29T12:54:07;86930.44;;;25.11;41.74
11678;BME280;5895;41.950;24.372;2024-03-29T12:56:37;86934.38;;;25.30;41.30
11678;BME280;5895;41.950;24.372;2024-03-29T12:59:06;86933.34;;;25.49;41.64
11678;BME280;5895;41.950;24.372;2024-03-29T13:01:33;86940.84;;;25.64;41.49
11678;BME280;5895;41.950;24.372;2024-03-29T13:03:59;86939.94;;;25.69;41.08
11678;BME280;5895;41.950;24.372;2024-03-29T13:06:26;86939.31;;;25.72;41.75
11678;BME280;5895;41.950;24.372;2024-03-29T13:08:53;86935.91;;;25.80;41.59
11678;BME280;5895;41.950;24.372;2024-03-29T13:11:22;86942.66;;;25.77;41.39
11678;BME280;5895;41.950;24.372;2024-03-29T13:13:50;86951.06;;;25.79;41.00